Simcha — PE7688 — position and weather

sailwx.info

Track history (hours):
 
Tides and Currents Weather Stations Pressure Air Temp Water Temp Dewpoint Dewpoint Depression Visibility Wind Speed Wind Dir Waves Ship Positions

Simcha

Last reported at 2015-Feb-27 00:29 UTC. Time now 2015-Feb-27 00:36 UTC.
Position N 52°14' E 005°01'.

Length 110 m.

Type: Ship. MMSI: 244780014.

Date/timePositionNaut miles runAvg speedWind from/ knotsBaromVisibWave heightAir tempDewpointWater temp
2015-Feb-27 00:29N 52°14' E 005°01'7 7.1
2015-Feb-26 23:33N 52°21' E 004°60'2 2.3
2015-Feb-26 22:33N 52°22' E 005°02'8 8.0
2015-Feb-26 21:33N 52°27' E 005°13'8 7.7
2015-Feb-26 20:33N 52°30' E 005°24'7 5.9
2015-Feb-26 19:25N 52°36' E 005°31'6 7.4
2015-Feb-26 18:33N 52°42' E 005°34'49 4.9
2015-Feb-26 08:33N 53°14' E 006°36'3 2.9
2015-Feb-26 07:32N 53°15' E 006°40'7 6.8
2015-Feb-26 06:33N 53°18' E 006°50'6 5.6
2015-Feb-26 05:33N 53°19' E 006°59'10 1.6
2015-Feb-25 23:26N 53°27' E 006°50'0 0.0
2015-Feb-25 22:33N 53°27' E 006°50'0 0.0
2015-Feb-25 21:33N 53°27' E 006°50'0 0.0
2015-Feb-25 20:33N 53°27' E 006°50'0 0.0
2015-Feb-25 19:33N 53°27' E 006°50'0 0.0
2015-Feb-25 18:33N 53°27' E 006°50'0 0.0
2015-Feb-25 17:33N 53°27' E 006°50'0 0.0
2015-Feb-25 15:26N 53°27' E 006°50'0 0.0
2015-Feb-25 13:32N 53°27' E 006°50'0 0.0
2015-Feb-25 12:31N 53°27' E 006°50'0 0.0
2015-Feb-25 11:11N 53°27' E 006°50'0 0.0
2015-Feb-25 02:09N 53°27' E 006°50'0 0.0
2015-Feb-25 01:33N 53°27' E 006°50'0 0.0
2015-Feb-25 00:33N 53°27' E 006°50'0 0.0
2015-Feb-24 23:33N 53°27' E 006°50'0 0.0
2015-Feb-24 22:33N 53°27' E 006°50'0 0.0
2015-Feb-24 21:33N 53°27' E 006°50'0 0.1
2015-Feb-24 20:33N 53°27' E 006°50'9 8.6
2015-Feb-24 19:33N 53°21' E 006°59'3 2.6
2015-Feb-24 18:33N 53°19' E 006°56'3 2.6
2015-Feb-24 17:33N 53°18' E 006°52'5 5.4
2015-Feb-24 16:33N 53°16' E 006°44'5 5.3
2015-Feb-24 15:33N 53°13' E 006°36'1 1.3
2015-Feb-24 14:33N 53°14' E 006°34'46 2.3
2015-Feb-23 18:29N 52°46' E 005°35'6 6.1
2015-Feb-23 17:33N 52°40' E 005°34'19 5.6
2015-Feb-23 14:11N 52°32' E 006°01'82 3.5
2015-Feb-22 14:33N 51°14' E 006°43'  
2015-Feb-17 03:30N 52°03' E 005°06'  
Track history (hours):
 
Tides and Currents Weather Stations Pressure Air Temp Water Temp Dewpoint Dewpoint Depression Visibility Wind Speed Wind Dir Waves Ship Positions

Simcha

Last reported at 2015-Feb-27 00:29 UTC. Time now 2015-Feb-27 00:36 UTC.
Position N 52°14' E 005°01'.

Length 110 m.

Type: Ship. MMSI: 244780014.

Date/timePositionNaut miles runAvg speedWind from/ knotsBaromVisibWave heightAir tempDewpointWater temp
2015-Feb-27 00:29N 52°14' E 005°01'7 7.1
2015-Feb-26 23:33N 52°21' E 004°60'2 2.3
2015-Feb-26 22:33N 52°22' E 005°02'8 8.0
2015-Feb-26 21:33N 52°27' E 005°13'8 7.7
2015-Feb-26 20:33N 52°30' E 005°24'7 5.9
2015-Feb-26 19:25N 52°36' E 005°31'6 7.4
2015-Feb-26 18:33N 52°42' E 005°34'49 4.9
2015-Feb-26 08:33N 53°14' E 006°36'3 2.9
2015-Feb-26 07:32N 53°15' E 006°40'7 6.8
2015-Feb-26 06:33N 53°18' E 006°50'6 5.6
2015-Feb-26 05:33N 53°19' E 006°59'10 1.6
2015-Feb-25 23:26N 53°27' E 006°50'0 0.0
2015-Feb-25 22:33N 53°27' E 006°50'0 0.0
2015-Feb-25 21:33N 53°27' E 006°50'0 0.0
2015-Feb-25 20:33N 53°27' E 006°50'0 0.0
2015-Feb-25 19:33N 53°27' E 006°50'0 0.0
2015-Feb-25 18:33N 53°27' E 006°50'0 0.0
2015-Feb-25 17:33N 53°27' E 006°50'0 0.0
2015-Feb-25 15:26N 53°27' E 006°50'0 0.0
2015-Feb-25 13:32N 53°27' E 006°50'0 0.0
2015-Feb-25 12:31N 53°27' E 006°50'0 0.0
2015-Feb-25 11:11N 53°27' E 006°50'0 0.0
2015-Feb-25 02:09N 53°27' E 006°50'0 0.0
2015-Feb-25 01:33N 53°27' E 006°50'0 0.0
2015-Feb-25 00:33N 53°27' E 006°50'0 0.0
2015-Feb-24 23:33N 53°27' E 006°50'0 0.0
2015-Feb-24 22:33N 53°27' E 006°50'0 0.0
2015-Feb-24 21:33N 53°27' E 006°50'0 0.1
2015-Feb-24 20:33N 53°27' E 006°50'9 8.6
2015-Feb-24 19:33N 53°21' E 006°59'3 2.6
2015-Feb-24 18:33N 53°19' E 006°56'3 2.6
2015-Feb-24 17:33N 53°18' E 006°52'5 5.4
2015-Feb-24 16:33N 53°16' E 006°44'5 5.3
2015-Feb-24 15:33N 53°13' E 006°36'1 1.3
2015-Feb-24 14:33N 53°14' E 006°34'46 2.3
2015-Feb-23 18:29N 52°46' E 005°35'6 6.1
2015-Feb-23 17:33N 52°40' E 005°34'19 5.6
2015-Feb-23 14:11N 52°32' E 006°01'82 3.5
2015-Feb-22 14:33N 51°14' E 006°43'  
2015-Feb-17 03:30N 52°03' E 005°06'  

Dump ship's entire track history